Time;durP1;ratioP1;P1;durP2;ratioP2;P2;SDS_P1;SDS_P2;PMS_P1;PMS_P2;Temp;Humidity;BMP_temperature;BMP_pressure;BME280_temperature;BME280_humidity;BME280_pressure;Samples;Min_cycle;Max_cycle;Signal;HPM_P1;HPM_P2
2023/11/13 00:00:37;;;;;;;;;;;;;;;6.08;89.31;100524.25;4063237;29;20037;-70
2023/11/13 00:02:46;;;;;;;;;;;;;;;6.07;89.40;100519.88;4042773;29;19927;-68
2023/11/13 00:04:50;;;;;;;;;;;;;;;6.07;89.59;100519.88;4041450;29;19927;-68
2023/11/13 00:06:59;;;;;;;;;;;;;;;6.08;89.56;100528.75;4066379;29;20034;-69
2023/11/13 00:09:06;;;;;;;;;;;;;;;6.07;89.46;100527.91;4060644;29;19939;-69
2023/11/13 00:11:11;;;;;;;;;;;;;;;6.08;89.38;100534.09;4061099;29;19983;-70
2023/11/13 00:13:18;;;;;;;;;;;;;;;6.09;89.43;100542.00;4078166;29;19986;-70
2023/11/13 00:15:29;;;;;;;;;;;;;;;6.09;89.22;100536.63;4078529;29;19958;-70
2023/11/13 00:17:36;;;;;;;;;;;;;;;6.10;88.89;100538.34;4045718;29;20395;-70
2023/11/13 00:19:43;;;;;;;;;;;;;;;6.11;88.67;100536.47;4078022;29;20433;-70
2023/11/13 00:21:46;;;;;;;;;;;;;;;6.11;88.44;100531.13;4076014;29;19974;-70
2023/11/13 00:23:48;;;;;;;;;;;;;;;6.11;88.40;100540.03;4077126;29;20429;-70
2023/11/13 00:25:54;;;;;;;;;;;;;;;6.11;88.64;100544.53;4076253;29;20038;-70
2023/11/13 00:27:57;;;;;;;;;;;;;;;6.11;88.75;100544.53;4066725;29;20001;-70
2023/11/13 00:29:59;;;;;;;;;;;;;;;6.11;88.58;100549.91;4075497;29;20019;-70
2023/11/13 00:32:01;;;;;;;;;;;;;;;6.11;88.71;100552.56;4050862;29;19931;-68
2023/11/13 00:34:03;;;;;;;;;;;;;;;6.12;88.40;100555.09;4076594;29;20390;-70
2023/11/13 00:36:08;;;;;;;;;;;;;;;6.13;88.28;100550.59;4076056;29;20023;-70
2023/11/13 00:38:18;;;;;;;;;;;;;;;6.11;88.21;100550.75;4066623;29;20909;-70
2023/11/13 00:40:26;;;;;;;;;;;;;;;6.13;88.36;100555.97;4058078;29;19932;-70
2023/11/13 00:42:41;;;;;;;;;;;;;;;6.13;88.12;100556.81;4081459;29;20328;-70
2023/11/13 00:44:46;;;;;;;;;;;;;;;6.13;88.43;100559.47;4060241;29;19931;-68
2023/11/13 00:46:50;;;;;;;;;;;;;;;6.14;88.19;100565.69;4077665;29;20402;-68
2023/11/13 00:48:58;;;;;;;;;;;;;;;6.14;88.10;100563.00;4066411;29;19995;-70
2023/11/13 00:51:18;;;;;;;;;;;;;;;6.15;88.00;100550.44;4059597;29;19999;-68
2023/11/13 00:53:21;;;;;;;;;;;;;;;6.16;88.12;100552.13;4081663;29;20246;-71
2023/11/13 00:55:23;;;;;;;;;;;;;;;6.17;88.02;100546.59;4076235;29;20026;-71
2023/11/13 00:57:25;;;;;;;;;;;;;;;6.17;87.77;100546.59;4076067;29;20003;-68
2023/11/13 00:59:35;;;;;;;;;;;;;;;6.18;87.65;100544.78;4082377;29;19937;-71
2023/11/13 01:01:44;;;;;;;;;;;;;;;6.17;87.78;100543.09;4075793;29;19938;-69
2023/11/13 01:04:01;;;;;;;;;;;;;;;6.19;87.83;100538.41;4059514;29;20772;-69
2023/11/13 01:06:05;;;;;;;;;;;;;;;6.18;87.88;100545.63;4058966;29;19938;-69
2023/11/13 01:08:18;;;;;;;;;;;;;;;6.19;87.61;100538.41;4067815;29;19927;-69
2023/11/13 01:10:30;;;;;;;;;;;;;;;6.20;87.72;100537.41;4059983;29;19937;-69
2023/11/13 01:12:32;;;;;;;;;;;;;;;6.20;87.13;100526.69;4057973;29;20424;-69
2023/11/13 01:14:42;;;;;;;;;;;;;;;6.20;87.31;100527.53;4081766;29;20472;-69
2023/11/13 01:16:51;;;;;;;;;;;;;;;6.21;87.36;100525.69;4060251;29;20393;-69
2023/11/13 01:18:58;;;;;;;;;;;;;;;6.21;87.40;100520.34;4065793;29;19983;-69
2023/11/13 01:21:08;;;;;;;;;;;;;;;6.21;87.23;100517.66;4058399;29;20326;-69
2023/11/13 01:23:22;;;;;;;;;;;;;;;6.21;87.31;100512.28;4056451;29;19931;-69
2023/11/13 01:25:32;;;;;;;;;;;;;;;6.22;86.89;100522.00;4059062;29;19927;-69
2023/11/13 01:27:45;;;;;;;;;;;;;;;6.22;86.93;100520.19;4058215;29;19927;-69
2023/11/13 01:29:55;;;;;;;;;;;;;;;6.22;86.85;100517.50;4076342;29;19937;-68
2023/11/13 01:32:24;;;;;;;;;;;;;;;6.22;86.64;100522.00;4077280;29;19927;-69
2023/11/13 01:34:26;;;;;;;;;;;;;;;6.23;86.76;100519.16;4072830;29;19977;-69
2023/11/13 01:36:28;;;;;;;;;;;;;;;6.24;86.55;100514.66;4061626;29;20425;-69
2023/11/13 01:38:36;;;;;;;;;;;;;;;6.23;86.33;100523.69;4061707;29;19987;-69
2023/11/13 01:40:41;;;;;;;;;;;;;;;6.23;86.27;100524.53;4076839;29;20384;-67
2023/11/13 01:42:46;;;;;;;;;;;;;;;6.25;86.26;100522.56;4066612;29;19927;-68
2023/11/13 01:44:58;;;;;;;;;;;;;;;6.23;85.94;100523.69;4059905;29;19927;-68
2023/11/13 01:47:01;;;;;;;;;;;;;;;6.24;85.84;100530.75;4059547;29;19928;-68
2023/11/13 01:49:04;;;;;;;;;;;;;;;6.24;86.06;100520.03;4077174;29;20021;-68
2023/11/13 01:51:08;;;;;;;;;;;;;;;6.24;85.59;100512.81;4059239;29;20029;-68
2023/11/13 01:53:10;;;;;;;;;;;;;;;6.24;85.65;100510.13;4066485;29;20046;-68
2023/11/13 01:55:13;;;;;;;;;;;;;;;6.22;85.53;100506.78;4082535;29;20022;-68
2023/11/13 01:57:14;;;;;;;;;;;;;;;6.21;86.09;100505.09;4076971;29;20030;-68
2023/11/13 01:59:16;;;;;;;;;;;;;;;6.24;85.89;100518.19;4050435;29;20026;-69
2023/11/13 02:01:18;;;;;;;;;;;;;;;6.22;86.22;100509.47;4066051;29;19962;-68
2023/11/13 02:03:19;;;;;;;;;;;;;;;6.24;85.93;100514.66;4066103;29;20929;-68
2023/11/13 02:05:21;;;;;;;;;;;;;;;6.24;85.88;100503.94;4076597;29;20462;-68
2023/11/13 02:07:23;;;;;;;;;;;;;;;6.24;85.85;100498.59;4065916;29;20596;-68
2023/11/13 02:09:25;;;;;;;;;;;;;;;6.25;85.95;100505.59;4064207;29;20030;-68
2023/11/13 02:11:28;;;;;;;;;;;;;;;6.24;85.88;100515.50;4066216;29;20026;-67
2023/11/13 02:13:30;;;;;;;;;;;;;;;6.25;85.87;100516.34;4080969;29;20030;-68
2023/11/13 02:15:32;;;;;;;;;;;;;;;6.26;85.98;100513.50;4044297;29;20026;-69
2023/11/13 02:17:34;;;;;;;;;;;;;;;6.26;85.58;100508.13;4059076;29;19960;-68
2023/11/13 02:19:36;;;;;;;;;;;;;;;6.26;85.83;100499.25;4059435;29;20406;-68
2023/11/13 02:21:38;;;;;;;;;;;;;;;6.26;85.72;100499.25;4066350;29;20469;-70
2023/11/13 02:23:41;;;;;;;;;;;;;;;6.25;85.51;100494.88;4065229;29;20010;-69
2023/11/13 02:25:49;;;;;;;;;;;;;;;6.24;85.59;100493.22;4074985;29;20487;-70
2023/11/13 02:27:52;;;;;;;;;;;;;;;6.24;85.32;100494.06;4076225;29;20019;-68
2023/11/13 02:29:54;;;;;;;;;;;;;;;6.25;85.44;100497.56;4065802;29;20529;-69
2023/11/13 02:31:57;;;;;;;;;;;;;;;6.25;85.56;100497.56;4066079;29;20009;-69
2023/11/13 02:33:59;;;;;;;;;;;;;;;6.24;85.31;100509.31;4076137;29;20033;-69
2023/11/13 02:36:01;;;;;;;;;;;;;;;6.24;85.19;100520.03;4059927;29;20018;-70
2023/11/13 02:38:02;;;;;;;;;;;;;;;6.24;85.26;100520.88;4067867;29;20054;-70
2023/11/13 02:40:06;;;;;;;;;;;;;;;6.23;85.15;100521.03;4076805;29;20034;-70
2023/11/13 02:42:08;;;;;;;;;;;;;;;6.23;85.52;100518.34;4077116;29;20030;-70
2023/11/13 02:44:10;;;;;;;;;;;;;;;6.22;85.37;100530.06;4076466;29;20030;-70
2023/11/13 02:46:12;;;;;;;;;;;;;;;6.23;85.36;100527.22;4075805;29;19930;-69
2023/11/13 02:48:14;;;;;;;;;;;;;;;6.24;85.13;100533.44;4075546;29;20021;-68
2023/11/13 02:50:16;;;;;;;;;;;;;;;6.24;85.00;100534.28;4075899;29;19934;-69
2023/11/13 02:52:17;;;;;;;;;;;;;;;6.24;84.80;100536.13;4065921;29;20021;-69
2023/11/13 02:54:20;;;;;;;;;;;;;;;6.24;84.48;100523.53;4075581;29;19982;-69
2023/11/13 02:56:22;;;;;;;;;;;;;;;6.23;84.72;100529.06;4066039;29;20096;-69
2023/11/13 02:58:24;;;;;;;;;;;;;;;6.24;84.50;100520.88;4057949;29;20009;-69
2023/11/13 03:00:28;;;;;;;;;;;;;;;6.24;84.55;100526.22;4057643;29;20022;-69
2023/11/13 03:02:30;;;;;;;;;;;;;;;6.24;84.57;100523.53;4058811;29;20812;-69
2023/11/13 03:04:32;;;;;;;;;;;;;;;6.22;84.41;100522.88;4075439;29;20021;-69
2023/11/13 03:06:34;;;;;;;;;;;;;;;6.24;84.17;100517.34;4075900;29;20470;-69
2023/11/13 03:08:35;;;;;;;;;;;;;;;6.22;84.31;100508.59;4075360;29;20018;-69
2023/11/13 03:10:37;;;;;;;;;;;;;;;6.22;84.25;100509.47;4058492;29;20027;-69
2023/11/13 03:12:40;;;;;;;;;;;;;;;6.22;84.28;100512.16;4074516;29;20029;-69
2023/11/13 03:14:43;;;;;;;;;;;;;;;6.21;84.23;100514.97;4076043;29;20021;-69
2023/11/13 03:16:44;;;;;;;;;;;;;;;6.20;84.48;100514.13;4075810;29;20373;-68
2023/11/13 03:18:46;;;;;;;;;;;;;;;6.20;84.48;100513.28;4065379;29;20366;-68
2023/11/13 03:20:49;;;;;;;;;;;;;;;6.19;84.48;100519.63;4065382;29;20030;-68
2023/11/13 03:22:51;;;;;;;;;;;;;;;6.18;84.09;100516.13;4075304;29;20587;-68
2023/11/13 03:24:53;;;;;;;;;;;;;;;6.18;84.43;100524.16;4058261;29;20018;-68
2023/11/13 03:26:55;;;;;;;;;;;;;;;6.19;84.38;100516.94;4057775;29;19928;-68
2023/11/13 03:28:58;;;;;;;;;;;;;;;6.17;84.54;100518.94;4075122;29;20058;-69
2023/11/13 03:31:01;;;;;;;;;;;;;;;6.18;84.66;100520.66;4048773;29;20022;-68
2023/11/13 03:33:03;;;;;;;;;;;;;;;6.18;84.39;100526.00;4075005;29;20029;-69
2023/11/13 03:35:05;;;;;;;;;;;;;;;6.18;84.61;100531.38;4075275;29;20021;-68
2023/11/13 03:37:08;;;;;;;;;;;;;;;6.17;84.48;100532.34;4074242;29;19931;-69
2023/11/13 03:39:11;;;;;;;;;;;;;;;6.16;84.71;100533.34;4075444;29;20014;-68
2023/11/13 03:41:13;;;;;;;;;;;;;;;6.17;84.27;100540.41;4048640;29;20039;-68
2023/11/13 03:43:15;;;;;;;;;;;;;;;6.16;84.33;100536.88;4074580;29;20812;-69
2023/11/13 03:45:19;;;;;;;;;;;;;;;6.16;84.30;100533.34;4074946;29;20021;-68
2023/11/13 03:47:21;;;;;;;;;;;;;;;6.13;84.38;100540.72;4057956;29;19931;-68
2023/11/13 03:49:23;;;;;;;;;;;;;;;6.13;84.16;100531.84;4072180;29;20026;-68
2023/11/13 03:51:25;;;;;;;;;;;;;;;6.12;83.94;100530.97;4057399;29;20021;-69
2023/11/13 03:53:27;;;;;;;;;;;;;;;6.12;83.96;100524.78;4064154;29;20045;-69
2023/11/13 03:55:29;;;;;;;;;;;;;;;6.12;84.21;100520.25;4074372;29;20030;-68
2023/11/13 03:57:31;;;;;;;;;;;;;;;6.12;83.99;100516.72;4073997;29;20014;-69
2023/11/13 03:59:33;;;;;;;;;;;;;;;6.11;84.08;100517.72;4063898;29;20906;-68
2023/11/13 04:01:38;;;;;;;;;;;;;;;6.11;84.13;100509.66;4079298;29;19938;-68
2023/11/13 04:03:40;;;;;;;;;;;;;;;6.10;84.00;100516.88;4073890;29;20022;-68
2023/11/13 04:05:41;;;;;;;;;;;;;;;6.10;84.37;100516.06;4074408;29;20021;-69
2023/11/13 04:07:43;;;;;;;;;;;;;;;6.08;83.98;100518.03;4074561;29;19987;-69
2023/11/13 04:09:45;;;;;;;;;;;;;;;6.08;84.16;100520.69;4074315;29;20010;-69
2023/11/13 04:11:49;;;;;;;;;;;;;;;6.07;84.01;100525.22;4073746;29;20017;-69
2023/11/13 04:13:51;;;;;;;;;;;;;;;6.08;84.38;100528.75;4073789;29;20018;-69
2023/11/13 04:15:53;;;;;;;;;;;;;;;6.07;84.33;100525.22;4064105;29;20022;-69
2023/11/13 04:17:58;;;;;;;;;;;;;;;6.07;84.25;100530.59;4057288;29;20620;-68
2023/11/13 04:20:00;;;;;;;;;;;;;;;6.06;84.17;100526.22;4057451;29;19935;-68
2023/11/13 04:22:02;;;;;;;;;;;;;;;6.05;84.21;100529.91;4074264;29;20350;-69
2023/11/13 04:24:05;;;;;;;;;;;;;;;6.05;84.43;100524.56;4074168;29;20535;-68
2023/11/13 04:26:08;;;;;;;;;;;;;;;6.05;84.32;100527.22;4074531;29;20013;-68
2023/11/13 04:28:11;;;;;;;;;;;;;;;6.03;84.18;100520.31;4074675;29;19959;-69
2023/11/13 04:30:13;;;;;;;;;;;;;;;6.03;84.29;100521.16;4073447;29;20022;-68
2023/11/13 04:32:15;;;;;;;;;;;;;;;6.02;83.96;100529.34;4073181;29;20034;-69
2023/11/13 04:34:19;;;;;;;;;;;;;;;6.02;83.97;100532.91;4074788;29;20371;-68
2023/11/13 04:36:21;;;;;;;;;;;;;;;6.03;83.92;100528.38;4073581;29;20359;-69
2023/11/13 04:38:23;;;;;;;;;;;;;;;6.03;84.33;100523.00;4074552;29;20021;-69
2023/11/13 04:40:26;;;;;;;;;;;;;;;6.03;84.24;100529.19;4073916;29;20010;-68
2023/11/13 04:42:28;;;;;;;;;;;;;;;6.03;83.99;100528.38;4074056;29;20025;-69
2023/11/13 04:44:29;;;;;;;;;;;;;;;6.02;84.13;100529.34;4073695;29;20026;-69
2023/11/13 04:46:32;;;;;;;;;;;;;;;6.00;84.13;100529.50;4074884;29;20027;-69
2023/11/13 04:48:33;;;;;;;;;;;;;;;5.99;83.85;100530.53;4073969;29;19938;-68
2023/11/13 04:50:36;;;;;;;;;;;;;;;5.98;83.90;100531.50;4073876;29;19927;-68
2023/11/13 04:52:38;;;;;;;;;;;;;;;5.98;83.86;100536.03;4073437;29;20026;-68
2023/11/13 04:54:40;;;;;;;;;;;;;;;5.97;84.06;100539.69;4074512;29;20025;-68
2023/11/13 04:56:42;;;;;;;;;;;;;;;5.95;83.83;100550.53;4074215;29;20037;-68
2023/11/13 04:58:44;;;;;;;;;;;;;;;5.94;83.93;100538.13;4074049;29;20017;-69
2023/11/13 05:00:46;;;;;;;;;;;;;;;5.95;84.03;100537.13;4073860;29;20448;-68
2023/11/13 05:02:48;;;;;;;;;;;;;;;5.95;84.18;100539.81;4074187;29;20025;-68
2023/11/13 05:04:50;;;;;;;;;;;;;;;5.93;84.07;100533.78;4073010;29;20021;-68
2023/11/13 05:06:55;;;;;;;;;;;;;;;5.93;83.92;100529.25;4073197;29;20017;-68
2023/11/13 05:08:57;;;;;;;;;;;;;;;5.92;84.08;100532.09;4073315;29;19955;-68
2023/11/13 05:10:59;;;;;;;;;;;;;;;5.90;84.18;100532.22;4073198;29;20033;-69
2023/11/13 05:13:01;;;;;;;;;;;;;;;5.90;84.37;100542.13;4073120;29;20492;-69
2023/11/13 05:15:04;;;;;;;;;;;;;;;5.88;83.92;100549.47;4074493;29;20022;-69
2023/11/13 05:17:06;;;;;;;;;;;;;;;5.88;84.36;100546.81;4073520;29;20029;-68
2023/11/13 05:19:08;;;;;;;;;;;;;;;5.86;83.98;100554.13;4074265;29;20014;-68
2023/11/13 05:21:09;;;;;;;;;;;;;;;5.85;84.48;100547.94;4063791;29;20933;-69
2023/11/13 05:23:13;;;;;;;;;;;;;;;5.85;84.36;100555.16;4074026;29;19966;-69
2023/11/13 05:25:15;;;;;;;;;;;;;;;5.85;84.67;100557.81;4073842;29;20026;-68
2023/11/13 05:27:17;;;;;;;;;;;;;;;5.83;84.71;100551.75;4074145;29;20038;-68
2023/11/13 05:29:19;;;;;;;;;;;;;;;5.82;84.88;100555.44;4073552;29;19973;-69
2023/11/13 05:31:21;;;;;;;;;;;;;;;5.82;84.66;100566.16;4073772;29;20025;-69
2023/11/13 05:33:22;;;;;;;;;;;;;;;5.82;84.71;100560.81;4074303;29;20421;-69
2023/11/13 05:35:24;;;;;;;;;;;;;;;5.81;84.77;100561.78;4073830;29;19927;-68
2023/11/13 05:37:26;;;;;;;;;;;;;;;5.79;84.74;100548.53;4074343;29;20022;-70
2023/11/13 05:39:29;;;;;;;;;;;;;;;5.79;84.82;100551.22;4073421;29;20014;-69
2023/11/13 05:41:32;;;;;;;;;;;;;;;5.80;84.88;100538.66;4074369;29;20100;-70
2023/11/13 05:43:34;;;;;;;;;;;;;;;5.78;84.78;100538.81;4064003;29;20059;-69
2023/11/13 05:45:36;;;;;;;;;;;;;;;5.77;84.79;100540.66;4072820;29;20018;-70
2023/11/13 05:47:38;;;;;;;;;;;;;;;5.77;84.66;100534.44;4073888;29;20026;-70
2023/11/13 05:49:40;;;;;;;;;;;;;;;5.76;84.76;100541.63;4074311;29;19960;-69
2023/11/13 05:51:42;;;;;;;;;;;;;;;5.75;84.81;100539.97;4072837;29;20021;-68
2023/11/13 05:53:44;;;;;;;;;;;;;;;5.74;84.71;100540.94;4074562;29;20019;-69
2023/11/13 05:55:48;;;;;;;;;;;;;;;5.74;84.55;100551.66;4072926;29;20030;-69
2023/11/13 05:57:50;;;;;;;;;;;;;;;5.73;84.73;100541.94;4072889;29;20037;-69
2023/11/13 05:59:52;;;;;;;;;;;;;;;5.71;84.96;100543.94;4073685;29;20013;-69
2023/11/13 06:01:54;;;;;;;;;;;;;;;5.70;84.63;100539.56;4072231;29;20029;-70
2023/11/13 06:03:56;;;;;;;;;;;;;;;5.71;85.00;100543.09;4073521;29;20025;-70
2023/11/13 06:05:58;;;;;;;;;;;;;;;5.70;85.20;100547.59;4073702;29;20038;-70
2023/11/13 06:08:00;;;;;;;;;;;;;;;5.69;84.89;100547.75;4072875;29;20017;-69
2023/11/13 06:10:02;;;;;;;;;;;;;;;5.69;85.19;100553.97;4072881;29;20524;-69
2023/11/13 06:12:06;;;;;;;;;;;;;;;5.68;84.94;100557.63;4073170;29;20014;-69
2023/11/13 06:14:08;;;;;;;;;;;;;;;5.67;85.13;100560.44;4073221;29;20058;-69
2023/11/13 06:16:10;;;;;;;;;;;;;;;5.65;85.23;100559.75;4073465;29;20022;-69
2023/11/13 06:18:12;;;;;;;;;;;;;;;5.64;85.19;100566.94;4072724;29;20009;-69
2023/11/13 06:20:15;;;;;;;;;;;;;;;5.63;85.04;100567.09;4074111;29;20022;-70
2023/11/13 06:22:17;;;;;;;;;;;;;;;5.62;85.08;100568.09;4071448;29;20022;-70
2023/11/13 06:24:19;;;;;;;;;;;;;;;5.60;85.08;100576.28;4076237;29;20014;-69
2023/11/13 06:26:21;;;;;;;;;;;;;;;5.58;85.29;100570.25;4075769;29;20021;-70
2023/11/13 06:28:25;;;;;;;;;;;;;;;5.56;85.44;100577.56;4076142;29;20018;-70
2023/11/13 06:30:27;;;;;;;;;;;;;;;5.52;85.43;100569.00;4075780;29;19931;-69
2023/11/13 06:32:29;;;;;;;;;;;;;;;5.51;85.22;100569.13;4075406;29;20449;-69
2023/11/13 06:34:31;;;;;;;;;;;;;;;5.49;85.44;100571.97;4075986;29;20047;-69
2023/11/13 06:36:35;;;;;;;;;;;;;;;5.49;85.32;100580.00;4075645;29;23231;-69
2023/11/13 06:38:36;;;;;;;;;;;;;;;5.50;85.46;100570.13;4076379;29;20363;-69
2023/11/13 06:40:38;;;;;;;;;;;;;;;5.50;85.44;100567.44;4076028;29;20030;-69
2023/11/13 06:42:40;;;;;;;;;;;;;;;5.46;85.46;100561.53;4075971;29;20400;-70
2023/11/13 06:44:42;;;;;;;;;;;;;;;5.44;85.08;100558.19;4076343;29;20018;-69
2023/11/13 06:46:44;;;;;;;;;;;;;;;5.44;85.57;100560.00;4075764;29;20037;-69
2023/11/13 06:48:48;;;;;;;;;;;;;;;5.44;85.31;100550.16;4075687;29;20457;-70
2023/11/13 06:50:50;;;;;;;;;;;;;;;5.44;85.64;100560.84;4075952;29;19930;-69
2023/11/13 06:52:53;;;;;;;;;;;;;;;5.43;85.28;100563.69;4075684;29;20013;-70
2023/11/13 06:54:58;;;;;;;;;;;;;;;5.41;85.53;100559.31;4065831;29;20030;-70
2023/11/13 06:57:00;;;;;;;;;;;;;;;5.41;85.45;100561.16;4076217;29;20021;-70
2023/11/13 06:59:02;;;;;;;;;;;;;;;5.39;85.16;100566.66;4076124;29;20368;-69
2023/11/13 07:01:05;;;;;;;;;;;;;;;5.40;85.64;100554.09;4075567;29;20018;-69
2023/11/13 07:03:07;;;;;;;;;;;;;;;5.40;85.65;100556.78;4075296;29;20038;-69
2023/11/13 07:05:10;;;;;;;;;;;;;;;5.38;85.62;100566.81;4075941;29;20521;-70
2023/11/13 07:07:12;;;;;;;;;;;;;;;5.38;85.36;100562.28;4075744;29;20021;-70
2023/11/13 07:09:14;;;;;;;;;;;;;;;5.37;85.21;100563.25;4075916;29;20018;-69
2023/11/13 07:11:17;;;;;;;;;;;;;;;5.37;85.25;100565.09;4075359;29;20372;-69
2023/11/13 07:13:19;;;;;;;;;;;;;;;5.37;85.32;100570.47;4075177;29;20464;-69
2023/11/13 07:15:21;;;;;;;;;;;;;;;5.36;85.56;100563.41;4075334;29;20520;-69
2023/11/13 07:17:25;;;;;;;;;;;;;;;5.35;85.36;100546.50;4075501;29;20017;-69
2023/11/13 07:19:27;;;;;;;;;;;;;;;5.36;85.56;100547.34;4074713;29;20054;-69
2023/11/13 07:21:29;;;;;;;;;;;;;;;5.35;85.65;100551.03;4073135;29;20477;-68
2023/11/13 07:23:32;;;;;;;;;;;;;;;5.36;85.79;100542.84;4074930;29;20026;-69
2023/11/13 07:25:34;;;;;;;;;;;;;;;5.37;85.97;100544.50;4072909;29;20018;-69
2023/11/13 07:27:35;;;;;;;;;;;;;;;5.39;85.97;100547.91;4075194;29;20038;-69
2023/11/13 07:29:37;;;;;;;;;;;;;;;5.39;85.63;100547.03;4072189;29;19927;-68
2023/11/13 07:31:39;;;;;;;;;;;;;;;5.38;85.58;100554.25;4071729;29;20046;-69
2023/11/13 07:33:43;;;;;;;;;;;;;;;5.40;85.74;100546.91;4072611;29;20021;-69
2023/11/13 07:35:44;;;;;;;;;;;;;;;5.42;85.46;100546.75;4072925;29;20022;-69
2023/11/13 07:37:46;;;;;;;;;;;;;;;5.43;85.85;100545.78;4074260;29;20029;-68
2023/11/13 07:39:48;;;;;;;;;;;;;;;5.44;85.56;100546.59;4074190;29;20085;-68
2023/11/13 07:41:52;;;;;;;;;;;;;;;5.47;85.86;100540.94;4073683;29;20018;-68
2023/11/13 07:43:56;;;;;;;;;;;;;;;5.47;85.63;100540.94;4063642;29;20047;-69
2023/11/13 07:45:58;;;;;;;;;;;;;;;5.48;85.61;100540.81;4074353;29;20017;-68
2023/11/13 07:48:00;;;;;;;;;;;;;;;5.48;85.63;100537.28;4073509;29;20030;-68
2023/11/13 07:50:04;;;;;;;;;;;;;;;5.49;85.87;100544.34;4074667;29;20446;-68
2023/11/13 07:52:09;;;;;;;;;;;;;;;5.50;85.63;100549.56;4073427;29;20462;-68
2023/11/13 07:54:11;;;;;;;;;;;;;;;5.54;85.71;100560.81;4071651;29;20528;-68
2023/11/13 07:56:13;;;;;;;;;;;;;;;5.55;86.06;100554.47;4073072;29;20025;-68
2023/11/13 07:58:15;;;;;;;;;;;;;;;5.59;86.01;100551.34;4072601;29;20025;-68
2023/11/13 08:00:23;;;;;;;;;;;;;;;5.66;86.09;100550.72;4073926;29;20018;-68
2023/11/13 08:02:25;;;;;;;;;;;;;;;5.70;86.15;100550.28;4073145;29;20050;-68
2023/11/13 08:04:27;;;;;;;;;;;;;;;5.74;86.13;100546.31;4074160;29;20022;-68
2023/11/13 08:06:31;;;;;;;;;;;;;;;5.80;86.23;100546.69;4074114;29;20473;-68
2023/11/13 08:08:33;;;;;;;;;;;;;;;5.85;86.09;100547.94;4074490;29;20029;-68
2023/11/13 08:10:36;;;;;;;;;;;;;;;5.90;85.58;100548.31;4074387;29;20014;-68
2023/11/13 08:12:38;;;;;;;;;;;;;;;5.95;85.48;100543.34;4074289;29;19990;-68
2023/11/13 08:14:41;;;;;;;;;;;;;;;6.02;85.19;100542.75;4074692;29;20079;-67
2023/11/13 08:16:43;;;;;;;;;;;;;;;6.06;84.90;100538.78;4074530;29;20039;-68
2023/11/13 08:18:45;;;;;;;;;;;;;;;6.15;84.96;100531.69;4074914;29;20013;-69
2023/11/13 08:20:47;;;;;;;;;;;;;;;6.19;84.17;100533.91;4074201;29;20022;-68
2023/11/13 08:22:51;;;;;;;;;;;;;;;6.23;83.71;100527.22;4074332;29;20128;-68
2023/11/13 08:24:53;;;;;;;;;;;;;;;6.29;83.40;100518.56;4074616;29;20018;-68
2023/11/13 08:26:55;;;;;;;;;;;;;;;6.36;83.41;100526.00;4074564;29;20051;-68
2023/11/13 08:28:58;;;;;;;;;;;;;;;6.40;82.73;100536.25;4074193;29;20014;-68
2023/11/13 08:31:00;;;;;;;;;;;;;;;6.47;82.70;100529.28;4073960;29;20025;-68
2023/11/13 08:33:02;;;;;;;;;;;;;;;6.54;82.10;100539.41;4074237;29;20027;-68
2023/11/13 08:35:05;;;;;;;;;;;;;;;6.61;82.13;100524.34;4056749;29;20390;-68
2023/11/13 08:37:08;;;;;;;;;;;;;;;6.69;81.99;100535.13;4074199;29;20026;-68
2023/11/13 08:39:11;;;;;;;;;;;;;;;6.78;82.01;100536.03;4074274;29;20053;-68
2023/11/13 08:41:13;;;;;;;;;;;;;;;6.87;81.52;100537.78;4073662;29;20416;-68
2023/11/13 08:43:15;;;;;;;;;;;;;;;6.94;81.51;100533.44;4073379;29;20022;-68
2023/11/13 08:45:16;;;;;;;;;;;;;;;7.02;81.16;100527.28;4074174;29;20030;-68
2023/11/13 08:47:18;;;;;;;;;;;;;;;7.11;81.21;100533.56;4057158;29;19927;-68
2023/11/13 08:49:21;;;;;;;;;;;;;;;7.17;80.78;100535.59;4063942;29;20018;-69
2023/11/13 08:51:27;;;;;;;;;;;;;;;7.24;80.49;100528.59;4073982;29;20017;-67
2023/11/13 08:53:29;;;;;;;;;;;;;;;7.30;80.03;100521.72;4074480;29;20021;-68
2023/11/13 08:55:33;;;;;;;;;;;;;;;7.36;79.69;100524.59;4073966;29;20042;-68
2023/11/13 08:57:38;;;;;;;;;;;;;;;7.43;79.56;100523.97;4074298;29;20022;-68
2023/11/13 08:59:40;;;;;;;;;;;;;;;7.49;79.32;100521.47;4074498;29;20434;-68
2023/11/13 09:01:42;;;;;;;;;;;;;;;7.54;78.79;100516.47;4074004;29;20021;-68
2023/11/13 09:03:44;;;;;;;;;;;;;;;7.61;78.56;100519.31;4074714;29;20388;-68
2023/11/13 09:05:46;;;;;;;;;;;;;;;7.64;78.30;100520.84;4073913;29;20014;-68
2023/11/13 09:07:50;;;;;;;;;;;;;;;7.69;78.31;100505.91;4073440;29;20013;-68
2023/11/13 09:09:55;;;;;;;;;;;;;;;7.73;78.14;100509.97;4073809;29;20593;-68
2023/11/13 09:11:58;;;;;;;;;;;;;;;7.78;78.08;100511.31;4073430;29;20025;-69
2023/11/13 09:14:00;;;;;;;;;;;;;;;7.82;77.47;100521.59;4073631;29;19927;-68
2023/11/13 09:16:05;;;;;;;;;;;;;;;7.89;77.28;100516.38;4073961;29;20030;-68
2023/11/13 09:18:07;;;;;;;;;;;;;;;7.92;76.84;100511.50;4073743;29;20203;-68
2023/11/13 09:20:08;;;;;;;;;;;;;;;7.96;76.64;100511.19;4073652;29;20346;-68
2023/11/13 09:22:12;;;;;;;;;;;;;;;7.99;76.89;100511.69;4073676;29;20005;-68
2023/11/13 09:24:17;;;;;;;;;;;;;;;8.03;76.52;100512.22;4074098;29;19931;-69
2023/11/13 09:26:19;;;;;;;;;;;;;;;8.04;76.63;100514.72;4074106;29;20025;-68
2023/11/13 09:28:22;;;;;;;;;;;;;;;8.06;76.56;100512.72;4074368;29;20484;-69
2023/11/13 09:30:25;;;;;;;;;;;;;;;8.09;76.16;100511.53;4072916;29;20030;-68
2023/11/13 09:32:27;;;;;;;;;;;;;;;8.09;76.42;100514.22;4073789;29;20365;-68
2023/11/13 09:34:29;;;;;;;;;;;;;;;8.11;75.95;100514.91;4074439;29;19927;-69
2023/11/13 09:36:32;;;;;;;;;;;;;;;8.11;76.10;100513.03;4073510;29;20388;-68
2023/11/13 09:38:34;;;;;;;;;;;;;;;8.15;76.09;100513.56;4063592;29;20032;-68
2023/11/13 09:40:35;;;;;;;;;;;;;;;8.18;75.97;100509.69;4073046;29;20034;-68
2023/11/13 09:42:37;;;;;;;;;;;;;;;8.18;75.62;100507.84;4073100;29;20014;-68
2023/11/13 09:44:41;;;;;;;;;;;;;;;8.19;75.54;100504.13;4073258;29;20027;-68
2023/11/13 09:46:43;;;;;;;;;;;;;;;8.21;75.78;100494.06;4073926;29;20017;-68
2023/11/13 09:48:48;;;;;;;;;;;;;;;8.23;75.69;100505.50;4073448;29;20361;-68
2023/11/13 09:50:50;;;;;;;;;;;;;;;8.26;75.64;100507.00;4073192;29;20022;-68
2023/11/13 09:52:56;;;;;;;;;;;;;;;8.27;75.62;100503.31;4073181;29;20565;-68
2023/11/13 09:54:58;;;;;;;;;;;;;;;8.28;75.45;100502.31;4075543;29;20608;-68
2023/11/13 09:57:00;;;;;;;;;;;;;;;8.29;75.50;100498.59;4075871;29;20736;-68
2023/11/13 09:59:03;;;;;;;;;;;;;;;8.30;75.49;100495.72;4076292;29;20027;-68
2023/11/13 10:01:06;;;;;;;;;;;;;;;8.33;75.24;100494.56;4077366;29;20568;-68
2023/11/13 10:03:09;;;;;;;;;;;;;;;8.35;75.31;100489.00;4076801;29;20033;-67
2023/11/13 10:05:12;;;;;;;;;;;;;;;8.36;75.05;100488.00;4076523;29;20887;-67
2023/11/13 10:07:15;;;;;;;;;;;;;;;8.38;75.01;100478.75;4076237;29;20050;-67
2023/11/13 10:09:21;;;;;;;;;;;;;;;8.39;75.38;100483.13;4076436;29;20030;-68
2023/11/13 10:11:28;;;;;;;;;;;;;;;8.41;74.87;100486.47;4075743;29;20022;-68
2023/11/13 10:13:30;;;;;;;;;;;;;;;8.42;74.96;100479.25;4076101;29;20018;-68
2023/11/13 10:15:32;;;;;;;;;;;;;;;8.41;75.06;100475.72;4075949;29;19959;-70
2023/11/13 10:17:42;;;;;;;;;;;;;;;8.43;75.16;100473.75;4076258;29;20475;-67
2023/11/13 10:19:46;;;;;;;;;;;;;;;8.46;74.83;100481.47;4076407;29;20014;-68
2023/11/13 10:21:48;;;;;;;;;;;;;;;8.48;74.86;100462.47;4076429;29;20017;-68
2023/11/13 10:23:50;;;;;;;;;;;;;;;8.50;74.96;100468.50;4075894;29;20030;-68
2023/11/13 10:25:56;;;;;;;;;;;;;;;8.52;75.10;100461.09;4075807;29;20451;-68
2023/11/13 10:27:58;;;;;;;;;;;;;;;8.55;74.94;100458.06;4075613;29;20022;-68
2023/11/13 10:30:04;;;;;;;;;;;;;;;8.57;75.20;100461.41;4075649;29;20369;-68
2023/11/13 10:32:06;;;;;;;;;;;;;;;8.60;75.09;100455.69;4076385;29;20033;-68
2023/11/13 10:34:11;;;;;;;;;;;;;;;8.63;74.85;100449.13;4075999;29;20026;-68
2023/11/13 10:36:17;;;;;;;;;;;;;;;8.65;75.18;100445.28;4076359;29;19931;-68
2023/11/13 10:38:20;;;;;;;;;;;;;;;8.69;75.01;100442.25;4076545;29;20413;-68
2023/11/13 10:40:26;;;;;;;;;;;;;;;8.72;74.97;100433.81;4075476;29;20022;-68
2023/11/13 10:42:28;;;;;;;;;;;;;;;8.75;74.79;100442.38;4075466;29;20021;-68